Adolph, MN (55701)

1:48 PM CDT on March 24, 2017 (GMT -0500)
Windy Hill | | Change Station

Elev 1303 ft 46.78 °N, 92.25 °W | Updated 23 seconds ago

Overcast
Overcast
37.8 °F
Feels Like 31 °F
N
8.9
Wind Variable Wind from NE

Today
High -- | Low -- °F
--% Chance of Precip.
Yesterday
High -- | Low -- °F
Precip. -- in
Pressure 30.14 in
Visibility 5.0 miles
Clouds Overcast 800 ft
Windchill 31 °F
Dew Point 33 °F
Humidity 83%
Rainfall 0.02 in
Snow Depth Not available.
7:03 AM 7:27 PM
Waning Crescent, 13% visible
METAR KDLH 241755Z 02007KT 5SM BR OVC008 03/01 A3008 RMK AO2 CIG 006V011 SLP205 60000 T00280011 10028 20006 51034
Pressure 30.14 in
Visibility 5.0 miles
Clouds Overcast 800 ft
Windchill 31 °F
Dew Point 33 °F
Humidity 83%
Rainfall 0.02 in
Snow Depth Not available.
7:03 AM 7:27 PM
Waning Crescent, 13% visible
METAR KDLH 241755Z 02007KT 5SM BR OVC008 03/01 A3008 RMK AO2 CIG 006V011 SLP205 60000 T00280011 10028 20006 51034

Get Severe Weather Alerts

Thanks for signing up!

Be on the lookout for a verification email in your inbox.

You'll start receiving the daily forecast at 8 AM.

×

10-Day Weather Forecast

Almanac

Astronomy

Mar. 24, 2017 Rise Set
Actual Time
Civil Twilight
Nautical Twilight
Astronomical Twilight
Moon
Length of Visible Light
Length of Day
Tomorrow will be .
, % of the Moon is Illuminated

Today's Extremes

State Highs State Lows

Community

WunderPhotos

Upload Photos

1,962,540 photos uploaded!

WunderBlog® & News

Nearby

Air Quality

  Air Quality AQ Index Pollutant
Not available.

Snow Depth

Station Depth Elevation

Earthquake Activity

City Distance Mag. Time & Date
Minimum magnitude displayed is 2.5.

Earthquake Activity

City Distance Mag. Time & Date
Minimum magnitude displayed is 2.5.

Coastal Water Temperatures

Place Temperature

Stations

Nearby Weather Stations

Station Location Temp. Windchill Dew Point Humidity Wind Precip. Elev Updated Type
                   

Watches & Warnings

There are currently no watches in effect.